MBL weather

Manistee Co Blacker Airport
Manistee, Michigan, United States

Public forecast

Using degrees Fahrenheit for public forecast. Weather courtesy of forecast.io.

Current aviation weather report (METAR) for Manistee Co Blacker Airport

Retrieved 2019/10/15 18:56 UTC (58 minutes ago):

KMBL 151856Z AUTO 12008KT 10SM BKN090 11/06 A2974 RMK AO2 RAB1757E09 SLP075 P0000 T01110061

Aviation forecast (TAF) for Manistee Co Blacker Airport

Retrieved 2019/10/15 18:45 UTC (1 hour ago):

TAF KMBL 151743Z 1518/1618 09010KT P6SM -SHRA OVC080 FM152100 15012G20KT 6SM -SHRA BR OVC025 FM160200 25011G19KT P6SM VCSH OVC013 FM160900 29011G20KT 6SM -SHRA BR OVC009 FM161100 32016G28KT 6SM -SHRA BR OVC011